sensor_id;sensor_type;location;lat;lon;timestamp;P1;durP1;ratioP1;P2;durP2;ratioP2
15931;SDS011;8065;49.520;11.284;2023-03-15T00:02:08;6.17;;;1.57;;
15931;SDS011;8065;49.520;11.284;2023-03-15T00:04:35;5.30;;;1.80;;
15931;SDS011;8065;49.520;11.284;2023-03-15T00:07:01;4.83;;;1.80;;
15931;SDS011;8065;49.520;11.284;2023-03-15T00:09:28;4.00;;;1.50;;
15931;SDS011;8065;49.520;11.284;2023-03-15T00:11:54;2.60;;;1.70;;
15931;SDS011;8065;49.520;11.284;2023-03-15T00:14:21;5.70;;;1.70;;
15931;SDS011;8065;49.520;11.284;2023-03-15T00:16:48;9.13;;;2.50;;
15931;SDS011;8065;49.520;11.284;2023-03-15T00:19:16;5.93;;;2.20;;
15931;SDS011;8065;49.520;11.284;2023-03-15T00:21:42;5.70;;;1.87;;
15931;SDS011;8065;49.520;11.284;2023-03-15T00:24:09;5.10;;;1.50;;
15931;SDS011;8065;49.520;11.284;2023-03-15T00:26:36;7.10;;;2.20;;
15931;SDS011;8065;49.520;11.284;2023-03-15T00:29:03;6.57;;;1.70;;
15931;SDS011;8065;49.520;11.284;2023-03-15T00:31:30;7.13;;;2.10;;
15931;SDS011;8065;49.520;11.284;2023-03-15T00:33:56;3.90;;;1.50;;
15931;SDS011;8065;49.520;11.284;2023-03-15T00:36:24;4.77;;;1.47;;
15931;SDS011;8065;49.520;11.284;2023-03-15T00:38:51;4.13;;;1.80;;
15931;SDS011;8065;49.520;11.284;2023-03-15T00:41:20;4.13;;;1.57;;
15931;SDS011;8065;49.520;11.284;2023-03-15T00:43:47;4.40;;;1.77;;
15931;SDS011;8065;49.520;11.284;2023-03-15T00:46:15;4.83;;;1.60;;
15931;SDS011;8065;49.520;11.284;2023-03-15T00:48:43;4.63;;;1.67;;
15931;SDS011;8065;49.520;11.284;2023-03-15T00:51:13;4.70;;;1.77;;
15931;SDS011;8065;49.520;11.284;2023-03-15T00:53:43;5.20;;;1.87;;
15931;SDS011;8065;49.520;11.284;2023-03-15T00:56:12;6.07;;;1.80;;
15931;SDS011;8065;49.520;11.284;2023-03-15T00:58:39;5.73;;;1.90;;
15931;SDS011;8065;49.520;11.284;2023-03-15T01:01:07;4.20;;;1.90;;
15931;SDS011;8065;49.520;11.284;2023-03-15T01:03:34;5.80;;;2.20;;
15931;SDS011;8065;49.520;11.284;2023-03-15T01:06:03;5.10;;;2.47;;
15931;SDS011;8065;49.520;11.284;2023-03-15T01:08:31;5.60;;;2.60;;
15931;SDS011;8065;49.520;11.284;2023-03-15T01:11:01;7.57;;;2.63;;
15931;SDS011;8065;49.520;11.284;2023-03-15T01:13:28;6.00;;;2.80;;
15931;SDS011;8065;49.520;11.284;2023-03-15T01:15:55;5.60;;;3.37;;
15931;SDS011;8065;49.520;11.284;2023-03-15T01:18:22;6.97;;;2.93;;
15931;SDS011;8065;49.520;11.284;2023-03-15T01:20:48;6.03;;;3.50;;
15931;SDS011;8065;49.520;11.284;2023-03-15T01:23:15;5.67;;;3.17;;
15931;SDS011;8065;49.520;11.284;2023-03-15T01:25:41;6.40;;;3.33;;
15931;SDS011;8065;49.520;11.284;2023-03-15T01:28:09;6.83;;;3.20;;
15931;SDS011;8065;49.520;11.284;2023-03-15T01:30:36;4.80;;;3.00;;
15931;SDS011;8065;49.520;11.284;2023-03-15T01:33:03;5.37;;;3.00;;
15931;SDS011;8065;49.520;11.284;2023-03-15T01:35:29;4.33;;;2.73;;
15931;SDS011;8065;49.520;11.284;2023-03-15T01:37:56;5.47;;;3.30;;
15931;SDS011;8065;49.520;11.284;2023-03-15T01:40:22;3.97;;;2.77;;
15931;SDS011;8065;49.520;11.284;2023-03-15T01:42:50;3.83;;;2.90;;
15931;SDS011;8065;49.520;11.284;2023-03-15T01:48:22;3.00;;;2.70;;
15931;SDS011;8065;49.520;11.284;2023-03-15T01:50:50;5.07;;;2.77;;
15931;SDS011;8065;49.520;11.284;2023-03-15T01:53:19;4.57;;;3.17;;
15931;SDS011;8065;49.520;11.284;2023-03-15T01:55:46;4.23;;;2.73;;
15931;SDS011;8065;49.520;11.284;2023-03-15T01:58:13;3.87;;;2.87;;
15931;SDS011;8065;49.520;11.284;2023-03-15T02:00:41;5.30;;;2.90;;
15931;SDS011;8065;49.520;11.284;2023-03-15T02:03:09;6.57;;;2.80;;
15931;SDS011;8065;49.520;11.284;2023-03-15T02:05:42;6.10;;;2.90;;
15931;SDS011;8065;49.520;11.284;2023-03-15T02:08:14;3.73;;;2.83;;
15931;SDS011;8065;49.520;11.284;2023-03-15T02:10:43;4.43;;;2.90;;
15931;SDS011;8065;49.520;11.284;2023-03-15T02:13:15;4.20;;;2.90;;
15931;SDS011;8065;49.520;11.284;2023-03-15T02:15:46;8.70;;;3.07;;
15931;SDS011;8065;49.520;11.284;2023-03-15T02:18:15;6.13;;;3.10;;
15931;SDS011;8065;49.520;11.284;2023-03-15T02:20:43;4.63;;;2.73;;
15931;SDS011;8065;49.520;11.284;2023-03-15T02:23:16;7.27;;;3.07;;
15931;SDS011;8065;49.520;11.284;2023-03-15T02:25:45;8.17;;;3.17;;
15931;SDS011;8065;49.520;11.284;2023-03-15T02:28:19;7.87;;;2.83;;
15931;SDS011;8065;49.520;11.284;2023-03-15T02:30:46;4.50;;;2.60;;
15931;SDS011;8065;49.520;11.284;2023-03-15T02:33:14;7.13;;;2.63;;
15931;SDS011;8065;49.520;11.284;2023-03-15T02:35:46;6.80;;;3.17;;
15931;SDS011;8065;49.520;11.284;2023-03-15T02:38:12;6.90;;;2.93;;
15931;SDS011;8065;49.520;11.284;2023-03-15T02:40:39;3.53;;;2.53;;
15931;SDS011;8065;49.520;11.284;2023-03-15T02:43:07;4.33;;;2.33;;
15931;SDS011;8065;49.520;11.284;2023-03-15T02:45:40;7.30;;;2.60;;
15931;SDS011;8065;49.520;11.284;2023-03-15T02:48:07;8.13;;;2.40;;
15931;SDS011;8065;49.520;11.284;2023-03-15T02:50:36;3.80;;;1.90;;
15931;SDS011;8065;49.520;11.284;2023-03-15T02:53:03;7.80;;;2.00;;
15931;SDS011;8065;49.520;11.284;2023-03-15T02:55:30;5.47;;;1.70;;
15931;SDS011;8065;49.520;11.284;2023-03-15T02:57:57;6.70;;;2.10;;
15931;SDS011;8065;49.520;11.284;2023-03-15T03:00:23;7.13;;;1.87;;
15931;SDS011;8065;49.520;11.284;2023-03-15T03:02:51;5.57;;;1.70;;
15931;SDS011;8065;49.520;11.284;2023-03-15T03:05:18;4.93;;;1.60;;
15931;SDS011;8065;49.520;11.284;2023-03-15T03:07:45;5.70;;;1.90;;
15931;SDS011;8065;49.520;11.284;2023-03-15T03:10:14;5.63;;;2.03;;
15931;SDS011;8065;49.520;11.284;2023-03-15T03:12:42;4.37;;;1.67;;
15931;SDS011;8065;49.520;11.284;2023-03-15T03:15:09;6.50;;;1.87;;
15931;SDS011;8065;49.520;11.284;2023-03-15T03:17:36;3.63;;;1.93;;
15931;SDS011;8065;49.520;11.284;2023-03-15T03:20:04;3.27;;;1.60;;
15931;SDS011;8065;49.520;11.284;2023-03-15T03:22:33;2.30;;;1.60;;
15931;SDS011;8065;49.520;11.284;2023-03-15T03:25:02;5.77;;;2.10;;
15931;SDS011;8065;49.520;11.284;2023-03-15T03:27:29;3.40;;;1.90;;
15931;SDS011;8065;49.520;11.284;2023-03-15T03:29:55;4.07;;;1.77;;
15931;SDS011;8065;49.520;11.284;2023-03-15T03:32:22;3.30;;;1.90;;
15931;SDS011;8065;49.520;11.284;2023-03-15T03:34:48;6.13;;;2.37;;
15931;SDS011;8065;49.520;11.284;2023-03-15T03:37:17;4.77;;;1.90;;
15931;SDS011;8065;49.520;11.284;2023-03-15T03:39:44;4.83;;;1.80;;
15931;SDS011;8065;49.520;11.284;2023-03-15T03:42:10;2.40;;;2.00;;
15931;SDS011;8065;49.520;11.284;2023-03-15T03:44:38;5.17;;;2.10;;
15931;SDS011;8065;49.520;11.284;2023-03-15T03:47:05;4.97;;;2.50;;
15931;SDS011;8065;49.520;11.284;2023-03-15T03:49:32;4.80;;;2.30;;
15931;SDS011;8065;49.520;11.284;2023-03-15T03:51:58;4.50;;;2.53;;
15931;SDS011;8065;49.520;11.284;2023-03-15T03:54:27;2.70;;;1.87;;
15931;SDS011;8065;49.520;11.284;2023-03-15T03:56:53;3.90;;;2.27;;
15931;SDS011;8065;49.520;11.284;2023-03-15T03:59:20;1.90;;;1.80;;
15931;SDS011;8065;49.520;11.284;2023-03-15T04:01:46;3.63;;;2.50;;
15931;SDS011;8065;49.520;11.284;2023-03-15T04:04:13;5.23;;;2.50;;
15931;SDS011;8065;49.520;11.284;2023-03-15T04:06:39;6.23;;;3.10;;
15931;SDS011;8065;49.520;11.284;2023-03-15T04:09:09;8.73;;;3.27;;
15931;SDS011;8065;49.520;11.284;2023-03-15T04:11:37;5.70;;;3.00;;
15931;SDS011;8065;49.520;11.284;2023-03-15T04:14:06;6.73;;;3.50;;
15931;SDS011;8065;49.520;11.284;2023-03-15T04:16:33;5.50;;;3.57;;
15931;SDS011;8065;49.520;11.284;2023-03-15T04:18:59;6.07;;;3.13;;
15931;SDS011;8065;49.520;11.284;2023-03-15T04:21:26;5.50;;;3.23;;
15931;SDS011;8065;49.520;11.284;2023-03-15T04:26:34;4.30;;;3.33;;
15931;SDS011;8065;49.520;11.284;2023-03-15T04:29:02;4.77;;;3.23;;
15931;SDS011;8065;49.520;11.284;2023-03-15T04:31:29;4.80;;;3.53;;
15931;SDS011;8065;49.520;11.284;2023-03-15T04:34:02;7.60;;;3.80;;
15931;SDS011;8065;49.520;11.284;2023-03-15T04:36:29;8.27;;;3.93;;
15931;SDS011;8065;49.520;11.284;2023-03-15T04:38:56;6.00;;;3.17;;
15931;SDS011;8065;49.520;11.284;2023-03-15T04:41:31;7.50;;;3.67;;
15931;SDS011;8065;49.520;11.284;2023-03-15T04:43:59;5.30;;;3.00;;
15931;SDS011;8065;49.520;11.284;2023-03-15T04:46:29;4.70;;;3.73;;
15931;SDS011;8065;49.520;11.284;2023-03-15T04:48:55;7.93;;;4.20;;
15931;SDS011;8065;49.520;11.284;2023-03-15T04:51:22;9.23;;;4.50;;
15931;SDS011;8065;49.520;11.284;2023-03-15T04:53:49;7.13;;;4.37;;
15931;SDS011;8065;49.520;11.284;2023-03-15T04:56:15;6.47;;;3.50;;
15931;SDS011;8065;49.520;11.284;2023-03-15T04:58:42;6.87;;;3.43;;
15931;SDS011;8065;49.520;11.284;2023-03-15T05:01:08;10.47;;;4.27;;
15931;SDS011;8065;49.520;11.284;2023-03-15T05:03:37;7.47;;;4.13;;
15931;SDS011;8065;49.520;11.284;2023-03-15T05:06:04;7.40;;;3.73;;
15931;SDS011;8065;49.520;11.284;2023-03-15T05:08:32;6.83;;;4.10;;
15931;SDS011;8065;49.520;11.284;2023-03-15T05:10:59;6.97;;;3.83;;
15931;SDS011;8065;49.520;11.284;2023-03-15T05:13:26;4.90;;;3.70;;
15931;SDS011;8065;49.520;11.284;2023-03-15T05:15:53;7.53;;;3.90;;
15931;SDS011;8065;49.520;11.284;2023-03-15T05:18:19;5.50;;;3.90;;
15931;SDS011;8065;49.520;11.284;2023-03-15T05:20:48;9.00;;;4.50;;
15931;SDS011;8065;49.520;11.284;2023-03-15T05:23:14;8.50;;;4.53;;
15931;SDS011;8065;49.520;11.284;2023-03-15T05:25:41;8.73;;;3.67;;
15931;SDS011;8065;49.520;11.284;2023-03-15T05:28:08;10.43;;;4.20;;
15931;SDS011;8065;49.520;11.284;2023-03-15T05:30:34;6.27;;;4.17;;
15931;SDS011;8065;49.520;11.284;2023-03-15T05:33:01;8.37;;;4.33;;
15931;SDS011;8065;49.520;11.284;2023-03-15T05:35:29;6.60;;;4.40;;
15931;SDS011;8065;49.520;11.284;2023-03-15T05:37:57;12.13;;;5.07;;
15931;SDS011;8065;49.520;11.284;2023-03-15T05:40:23;11.57;;;5.20;;
15931;SDS011;8065;49.520;11.284;2023-03-15T05:42:50;12.93;;;5.43;;
15931;SDS011;8065;49.520;11.284;2023-03-15T05:45:16;14.13;;;6.40;;
15931;SDS011;8065;49.520;11.284;2023-03-15T05:47:43;9.70;;;5.97;;
15931;SDS011;8065;49.520;11.284;2023-03-15T05:50:10;12.70;;;6.27;;
15931;SDS011;8065;49.520;11.284;2023-03-15T05:52:36;10.87;;;6.70;;
15931;SDS011;8065;49.520;11.284;2023-03-15T05:55:04;12.37;;;6.77;;
15931;SDS011;8065;49.520;11.284;2023-03-15T05:57:31;10.13;;;6.17;;
15931;SDS011;8065;49.520;11.284;2023-03-15T05:59:58;11.77;;;7.03;;
15931;SDS011;8065;49.520;11.284;2023-03-15T06:02:24;11.73;;;6.90;;
15931;SDS011;8065;49.520;11.284;2023-03-15T06:04:51;13.40;;;7.03;;
15931;SDS011;8065;49.520;11.284;2023-03-15T06:07:17;11.83;;;6.57;;
15931;SDS011;8065;49.520;11.284;2023-03-15T06:09:45;13.53;;;6.70;;
15931;SDS011;8065;49.520;11.284;2023-03-15T06:12:13;15.97;;;6.80;;
15931;SDS011;8065;49.520;11.284;2023-03-15T06:14:40;13.67;;;6.27;;
15931;SDS011;8065;49.520;11.284;2023-03-15T06:17:06;12.80;;;6.37;;
15931;SDS011;8065;49.520;11.284;2023-03-15T06:19:33;8.43;;;6.13;;
15931;SDS011;8065;49.520;11.284;2023-03-15T06:22:00;11.77;;;7.20;;
15931;SDS011;8065;49.520;11.284;2023-03-15T06:24:27;10.07;;;6.30;;
15931;SDS011;8065;49.520;11.284;2023-03-15T06:26:54;13.43;;;7.07;;
15931;SDS011;8065;49.520;11.284;2023-03-15T06:29:22;11.83;;;6.93;;
15931;SDS011;8065;49.520;11.284;2023-03-15T06:31:49;12.37;;;6.67;;
15931;SDS011;8065;49.520;11.284;2023-03-15T06:34:17;11.53;;;6.30;;
15931;SDS011;8065;49.520;11.284;2023-03-15T06:36:45;12.97;;;7.20;;
15931;SDS011;8065;49.520;11.284;2023-03-15T06:39:11;11.97;;;6.23;;
15931;SDS011;8065;49.520;11.284;2023-03-15T06:41:39;9.67;;;6.27;;
15931;SDS011;8065;49.520;11.284;2023-03-15T06:44:05;13.83;;;7.83;;
15931;SDS011;8065;49.520;11.284;2023-03-15T06:46:33;25.40;;;14.20;;
15931;SDS011;8065;49.520;11.284;2023-03-15T06:49:00;35.53;;;20.30;;
15931;SDS011;8065;49.520;11.284;2023-03-15T06:51:27;18.10;;;9.23;;
15931;SDS011;8065;49.520;11.284;2023-03-15T06:53:53;14.07;;;8.83;;
15931;SDS011;8065;49.520;11.284;2023-03-15T06:56:20;14.70;;;8.73;;
15931;SDS011;8065;49.520;11.284;2023-03-15T06:58:46;14.23;;;8.23;;
15931;SDS011;8065;49.520;11.284;2023-03-15T07:01:14;13.30;;;7.20;;
15931;SDS011;8065;49.520;11.284;2023-03-15T07:03:42;11.80;;;7.13;;
15931;SDS011;8065;49.520;11.284;2023-03-15T07:06:08;10.73;;;6.50;;
15931;SDS011;8065;49.520;11.284;2023-03-15T07:08:35;14.70;;;8.70;;
15931;SDS011;8065;49.520;11.284;2023-03-15T07:11:02;15.93;;;7.37;;
15931;SDS011;8065;49.520;11.284;2023-03-15T07:13:30;11.93;;;7.03;;
15931;SDS011;8065;49.520;11.284;2023-03-15T07:15:57;14.17;;;7.87;;
15931;SDS011;8065;49.520;11.284;2023-03-15T07:18:23;16.17;;;7.73;;
15931;SDS011;8065;49.520;11.284;2023-03-15T07:21:00;13.27;;;7.10;;
15931;SDS011;8065;49.520;11.284;2023-03-15T07:23:29;11.67;;;7.33;;
15931;SDS011;8065;49.520;11.284;2023-03-15T07:25:56;12.07;;;6.90;;
15931;SDS011;8065;49.520;11.284;2023-03-15T07:28:23;13.03;;;7.13;;
15931;SDS011;8065;49.520;11.284;2023-03-15T07:30:51;9.93;;;6.70;;
15931;SDS011;8065;49.520;11.284;2023-03-15T07:33:19;10.60;;;7.07;;
15931;SDS011;8065;49.520;11.284;2023-03-15T07:35:47;10.67;;;6.60;;
15931;SDS011;8065;49.520;11.284;2023-03-15T07:38:15;15.53;;;7.20;;
15931;SDS011;8065;49.520;11.284;2023-03-15T07:40:41;10.57;;;6.63;;
15931;SDS011;8065;49.520;11.284;2023-03-15T07:43:08;11.83;;;6.23;;
15931;SDS011;8065;49.520;11.284;2023-03-15T07:45:34;14.50;;;7.37;;
15931;SDS011;8065;49.520;11.284;2023-03-15T07:48:01;12.13;;;6.40;;
15931;SDS011;8065;49.520;11.284;2023-03-15T07:50:28;14.80;;;6.63;;
15931;SDS011;8065;49.520;11.284;2023-03-15T07:52:54;9.80;;;6.10;;
15931;SDS011;8065;49.520;11.284;2023-03-15T07:55:22;11.00;;;6.33;;
15931;SDS011;8065;49.520;11.284;2023-03-15T07:57:49;8.10;;;5.83;;
15931;SDS011;8065;49.520;11.284;2023-03-15T08:00:16;12.77;;;6.90;;
15931;SDS011;8065;49.520;11.284;2023-03-15T08:02:43;12.33;;;7.03;;
15931;SDS011;8065;49.520;11.284;2023-03-15T08:05:11;17.50;;;6.27;;
15931;SDS011;8065;49.520;11.284;2023-03-15T08:07:38;12.77;;;6.07;;
15931;SDS011;8065;49.520;11.284;2023-03-15T08:10:05;13.87;;;5.77;;
15931;SDS011;8065;49.520;11.284;2023-03-15T08:12:33;11.03;;;5.77;;
15931;SDS011;8065;49.520;11.284;2023-03-15T08:15:00;13.10;;;6.80;;
15931;SDS011;8065;49.520;11.284;2023-03-15T08:17:26;11.83;;;6.20;;
15931;SDS011;8065;49.520;11.284;2023-03-15T08:19:53;12.50;;;6.33;;
15931;SDS011;8065;49.520;11.284;2023-03-15T08:22:19;6.30;;;5.13;;
15931;SDS011;8065;49.520;11.284;2023-03-15T08:24:46;8.80;;;4.43;;
15931;SDS011;8065;49.520;11.284;2023-03-15T08:27:13;13.83;;;5.13;;
15931;SDS011;8065;49.520;11.284;2023-03-15T08:29:41;12.50;;;5.50;;
15931;SDS011;8065;49.520;11.284;2023-03-15T08:32:08;8.13;;;4.40;;
15931;SDS011;8065;49.520;11.284;2023-03-15T08:34:34;9.37;;;4.67;;
15931;SDS011;8065;49.520;11.284;2023-03-15T08:37:03;6.10;;;4.37;;
15931;SDS011;8065;49.520;11.284;2023-03-15T08:39:29;9.07;;;4.03;;
15931;SDS011;8065;49.520;11.284;2023-03-15T08:41:56;7.20;;;3.93;;
15931;SDS011;8065;49.520;11.284;2023-03-15T08:44:22;6.60;;;4.80;;
15931;SDS011;8065;49.520;11.284;2023-03-15T08:46:50;7.40;;;3.90;;
15931;SDS011;8065;49.520;11.284;2023-03-15T08:49:17;5.97;;;3.27;;
15931;SDS011;8065;49.520;11.284;2023-03-15T08:51:43;10.30;;;3.73;;
15931;SDS011;8065;49.520;11.284;2023-03-15T08:54:10;6.23;;;2.90;;
15931;SDS011;8065;49.520;11.284;2023-03-15T08:56:37;6.87;;;3.37;;
15931;SDS011;8065;49.520;11.284;2023-03-15T08:59:04;8.23;;;2.80;;
15931;SDS011;8065;49.520;11.284;2023-03-15T09:01:30;5.23;;;3.47;;
15931;SDS011;8065;49.520;11.284;2023-03-15T09:03:58;8.93;;;3.00;;
15931;SDS011;8065;49.520;11.284;2023-03-15T09:06:26;5.57;;;3.07;;
15931;SDS011;8065;49.520;11.284;2023-03-15T09:08:53;9.27;;;2.87;;
15931;SDS011;8065;49.520;11.284;2023-03-15T09:11:20;9.53;;;2.93;;
15931;SDS011;8065;49.520;11.284;2023-03-15T09:13:47;9.87;;;3.27;;
15931;SDS011;8065;49.520;11.284;2023-03-15T09:16:13;11.07;;;2.80;;
15931;SDS011;8065;49.520;11.284;2023-03-15T09:18:40;6.93;;;2.50;;
15931;SDS011;8065;49.520;11.284;2023-03-15T09:21:09;5.13;;;2.63;;
15931;SDS011;8065;49.520;11.284;2023-03-15T09:23:36;8.83;;;2.43;;
15931;SDS011;8065;49.520;11.284;2023-03-15T09:26:02;6.50;;;2.50;;
15931;SDS011;8065;49.520;11.284;2023-03-15T09:28:29;6.87;;;2.70;;
15931;SDS011;8065;49.520;11.284;2023-03-15T09:30:55;7.37;;;2.47;;
15931;SDS011;8065;49.520;11.284;2023-03-15T09:33:22;7.07;;;2.30;;
15931;SDS011;8065;49.520;11.284;2023-03-15T09:35:49;6.77;;;2.37;;
15931;SDS011;8065;49.520;11.284;2023-03-15T09:38:17;11.13;;;2.90;;
15931;SDS011;8065;49.520;11.284;2023-03-15T09:40:46;5.07;;;2.30;;
15931;SDS011;8065;49.520;11.284;2023-03-15T09:43:24;8.90;;;2.50;;
15931;SDS011;8065;49.520;11.284;2023-03-15T09:46:07;4.67;;;2.53;;
15931;SDS011;8065;49.520;11.284;2023-03-15T09:48:43;5.70;;;2.40;;
15931;SDS011;8065;49.520;11.284;2023-03-15T09:51:18;8.73;;;2.37;;
15931;SDS011;8065;49.520;11.284;2023-03-15T09:53:58;8.60;;;2.53;;
15931;SDS011;8065;49.520;11.284;2023-03-15T09:56:30;6.90;;;2.50;;
15931;SDS011;8065;49.520;11.284;2023-03-15T09:59:00;10.50;;;2.50;;
15931;SDS011;8065;49.520;11.284;2023-03-15T10:01:30;6.10;;;2.60;;
15931;SDS011;8065;49.520;11.284;2023-03-15T10:04:01;7.20;;;2.23;;
15931;SDS011;8065;49.520;11.284;2023-03-15T10:06:33;6.57;;;2.27;;
15931;SDS011;8065;49.520;11.284;2023-03-15T10:09:08;6.77;;;2.20;;
15931;SDS011;8065;49.520;11.284;2023-03-15T10:11:39;6.53;;;2.10;;
15931;SDS011;8065;49.520;11.284;2023-03-15T10:14:15;7.20;;;2.00;;
15931;SDS011;8065;49.520;11.284;2023-03-15T10:16:49;9.50;;;2.03;;
15931;SDS011;8065;49.520;11.284;2023-03-15T10:19:17;5.33;;;2.30;;
15931;SDS011;8065;49.520;11.284;2023-03-15T10:21:55;9.20;;;2.63;;
15931;SDS011;8065;49.520;11.284;2023-03-15T10:24:30;4.93;;;2.43;;
15931;SDS011;8065;49.520;11.284;2023-03-15T10:27:05;7.57;;;2.60;;
15931;SDS011;8065;49.520;11.284;2023-03-15T10:29:39;8.00;;;2.47;;
15931;SDS011;8065;49.520;11.284;2023-03-15T10:32:08;6.23;;;2.37;;
15931;SDS011;8065;49.520;11.284;2023-03-15T10:34:41;6.47;;;2.70;;
15931;SDS011;8065;49.520;11.284;2023-03-15T10:37:10;7.70;;;2.80;;
15931;SDS011;8065;49.520;11.284;2023-03-15T10:39:38;7.73;;;2.40;;
15931;SDS011;8065;49.520;11.284;2023-03-15T10:42:22;10.80;;;2.60;;
15931;SDS011;8065;49.520;11.284;2023-03-15T10:44:49;7.60;;;2.43;;
15931;SDS011;8065;49.520;11.284;2023-03-15T10:47:18;4.50;;;2.07;;
15931;SDS011;8065;49.520;11.284;2023-03-15T10:49:46;7.03;;;2.70;;
15931;SDS011;8065;49.520;11.284;2023-03-15T10:52:23;4.70;;;2.50;;
15931;SDS011;8065;49.520;11.284;2023-03-15T10:54:53;10.00;;;3.10;;
15931;SDS011;8065;49.520;11.284;2023-03-15T10:57:20;5.33;;;2.27;;
15931;SDS011;8065;49.520;11.284;2023-03-15T10:59:53;7.60;;;2.90;;
15931;SDS011;8065;49.520;11.284;2023-03-15T11:02:24;7.97;;;2.77;;
15931;SDS011;8065;49.520;11.284;2023-03-15T11:04:58;4.40;;;2.77;;
15931;SDS011;8065;49.520;11.284;2023-03-15T11:07:26;5.53;;;2.63;;
15931;SDS011;8065;49.520;11.284;2023-03-15T11:09:57;7.87;;;2.73;;
15931;SDS011;8065;49.520;11.284;2023-03-15T11:12:25;6.80;;;3.07;;
15931;SDS011;8065;49.520;11.284;2023-03-15T11:14:55;5.97;;;2.90;;
15931;SDS011;8065;49.520;11.284;2023-03-15T11:17:24;5.63;;;2.97;;
15931;SDS011;8065;49.520;11.284;2023-03-15T11:19:54;10.17;;;3.17;;
15931;SDS011;8065;49.520;11.284;2023-03-15T11:22:22;4.27;;;2.30;;
15931;SDS011;8065;49.520;11.284;2023-03-15T11:24:49;5.93;;;2.60;;
15931;SDS011;8065;49.520;11.284;2023-03-15T11:27:20;11.60;;;3.70;;
15931;SDS011;8065;49.520;11.284;2023-03-15T11:29:48;4.90;;;3.00;;
15931;SDS011;8065;49.520;11.284;2023-03-15T11:32:17;6.93;;;3.27;;
15931;SDS011;8065;49.520;11.284;2023-03-15T11:34:46;8.47;;;3.20;;
15931;SDS011;8065;49.520;11.284;2023-03-15T11:37:21;6.73;;;2.90;;
15931;SDS011;8065;49.520;11.284;2023-03-15T11:39:51;7.33;;;3.23;;
15931;SDS011;8065;49.520;11.284;2023-03-15T11:42:23;7.90;;;2.73;;
15931;SDS011;8065;49.520;11.284;2023-03-15T11:44:56;10.00;;;3.20;;
15931;SDS011;8065;49.520;11.284;2023-03-15T11:47:29;6.53;;;3.47;;
15931;SDS011;8065;49.520;11.284;2023-03-15T11:50:02;6.57;;;3.10;;
15931;SDS011;8065;49.520;11.284;2023-03-15T11:52:29;5.57;;;2.60;;
15931;SDS011;8065;49.520;11.284;2023-03-15T11:54:56;5.57;;;2.87;;
15931;SDS011;8065;49.520;11.284;2023-03-15T12:00:25;3.33;;;2.80;;
15931;SDS011;8065;49.520;11.284;2023-03-15T12:03:23;7.57;;;2.90;;
15931;SDS011;8065;49.520;11.284;2023-03-15T12:06:10;7.60;;;2.70;;
15931;SDS011;8065;49.520;11.284;2023-03-15T12:08:59;4.03;;;2.50;;
15931;SDS011;8065;49.520;11.284;2023-03-15T12:11:36;4.63;;;2.53;;
15931;SDS011;8065;49.520;11.284;2023-03-15T12:14:20;4.93;;;2.47;;
15931;SDS011;8065;49.520;11.284;2023-03-15T12:16:53;5.53;;;2.13;;
15931;SDS011;8065;49.520;11.284;2023-03-15T12:19:42;4.73;;;2.23;;
15931;SDS011;8065;49.520;11.284;2023-03-15T12:22:12;5.70;;;2.50;;
15931;SDS011;8065;49.520;11.284;2023-03-15T12:24:42;3.37;;;2.33;;
15931;SDS011;8065;49.520;11.284;2023-03-15T12:27:13;6.50;;;2.40;;
15931;SDS011;8065;49.520;11.284;2023-03-15T12:29:43;5.33;;;2.40;;
15931;SDS011;8065;49.520;11.284;2023-03-15T12:32:11;5.60;;;2.67;;
15931;SDS011;8065;49.520;11.284;2023-03-15T12:34:44;3.17;;;1.90;;
15931;SDS011;8065;49.520;11.284;2023-03-15T12:37:16;3.77;;;2.40;;
15931;SDS011;8065;49.520;11.284;2023-03-15T12:39:46;4.43;;;2.00;;
15931;SDS011;8065;49.520;11.284;2023-03-15T12:45:34;4.80;;;1.50;;
15931;SDS011;8065;49.520;11.284;2023-03-15T12:51:00;5.07;;;1.90;;
15931;SDS011;8065;49.520;11.284;2023-03-15T12:53:45;2.33;;;1.50;;
15931;SDS011;8065;49.520;11.284;2023-03-15T12:59:02;3.27;;;1.50;;
15931;SDS011;8065;49.520;11.284;2023-03-15T13:01:36;3.37;;;1.40;;
15931;SDS011;8065;49.520;11.284;2023-03-15T13:04:03;2.10;;;1.47;;
15931;SDS011;8065;49.520;11.284;2023-03-15T13:06:34;1.80;;;1.53;;
15931;SDS011;8065;49.520;11.284;2023-03-15T13:09:13;4.20;;;1.43;;
15931;SDS011;8065;49.520;11.284;2023-03-15T13:11:48;3.17;;;1.50;;
15931;SDS011;8065;49.520;11.284;2023-03-15T13:14:25;3.43;;;1.57;;
15931;SDS011;8065;49.520;11.284;2023-03-15T13:17:04;2.70;;;1.43;;
15931;SDS011;8065;49.520;11.284;2023-03-15T13:19:42;1.80;;;1.43;;
15931;SDS011;8065;49.520;11.284;2023-03-15T13:22:13;4.03;;;1.50;;
15931;SDS011;8065;49.520;11.284;2023-03-15T13:24:49;2.17;;;1.63;;
15931;SDS011;8065;49.520;11.284;2023-03-15T13:27:26;3.77;;;1.87;;
15931;SDS011;8065;49.520;11.284;2023-03-15T13:30:06;5.57;;;2.20;;
15931;SDS011;8065;49.520;11.284;2023-03-15T13:33:01;2.07;;;1.70;;
15931;SDS011;8065;49.520;11.284;2023-03-15T13:35:30;1.70;;;1.60;;
15931;SDS011;8065;49.520;11.284;2023-03-15T13:37:59;2.33;;;1.70;;
15931;SDS011;8065;49.520;11.284;2023-03-15T13:40:32;3.00;;;1.63;;
15931;SDS011;8065;49.520;11.284;2023-03-15T13:42:58;3.07;;;1.70;;
15931;SDS011;8065;49.520;11.284;2023-03-15T13:45:25;2.60;;;1.80;;
15931;SDS011;8065;49.520;11.284;2023-03-15T13:47:51;2.70;;;1.30;;
15931;SDS011;8065;49.520;11.284;2023-03-15T13:50:20;1.83;;;1.20;;
15931;SDS011;8065;49.520;11.284;2023-03-15T13:52:46;1.57;;;1.43;;
15931;SDS011;8065;49.520;11.284;2023-03-15T13:55:14;3.90;;;1.80;;
15931;SDS011;8065;49.520;11.284;2023-03-15T13:57:41;1.83;;;1.30;;
15931;SDS011;8065;49.520;11.284;2023-03-15T14:00:08;4.70;;;1.70;;
15931;SDS011;8065;49.520;11.284;2023-03-15T14:02:43;1.90;;;1.70;;
15931;SDS011;8065;49.520;11.284;2023-03-15T14:05:14;3.00;;;1.60;;
15931;SDS011;8065;49.520;11.284;2023-03-15T14:07:44;3.10;;;1.70;;
15931;SDS011;8065;49.520;11.284;2023-03-15T14:10:21;3.67;;;1.87;;
15931;SDS011;8065;49.520;11.284;2023-03-15T14:12:51;2.57;;;1.87;;
15931;SDS011;8065;49.520;11.284;2023-03-15T14:15:19;2.53;;;1.70;;
15931;SDS011;8065;49.520;11.284;2023-03-15T14:17:52;3.23;;;1.50;;
15931;SDS011;8065;49.520;11.284;2023-03-15T14:20:26;2.10;;;1.60;;
15931;SDS011;8065;49.520;11.284;2023-03-15T14:22:59;2.27;;;1.90;;
15931;SDS011;8065;49.520;11.284;2023-03-15T14:25:32;2.33;;;1.50;;
15931;SDS011;8065;49.520;11.284;2023-03-15T14:28:00;3.53;;;1.50;;
15931;SDS011;8065;49.520;11.284;2023-03-15T14:30:27;4.33;;;2.67;;
15931;SDS011;8065;49.520;11.284;2023-03-15T14:32:57;3.57;;;1.70;;
15931;SDS011;8065;49.520;11.284;2023-03-15T14:35:29;2.00;;;1.63;;
15931;SDS011;8065;49.520;11.284;2023-03-15T14:38:02;2.03;;;1.87;;
15931;SDS011;8065;49.520;11.284;2023-03-15T14:40:33;2.33;;;1.87;;
15931;SDS011;8065;49.520;11.284;2023-03-15T14:43:01;2.70;;;1.70;;
15931;SDS011;8065;49.520;11.284;2023-03-15T14:45:29;1.60;;;1.50;;
15931;SDS011;8065;49.520;11.284;2023-03-15T14:47:58;2.23;;;1.63;;
15931;SDS011;8065;49.520;11.284;2023-03-15T14:50:29;1.90;;;1.57;;
15931;SDS011;8065;49.520;11.284;2023-03-15T14:52:59;2.80;;;1.73;;
15931;SDS011;8065;49.520;11.284;2023-03-15T14:55:29;2.00;;;1.77;;
15931;SDS011;8065;49.520;11.284;2023-03-15T14:57:59;1.73;;;1.63;;
15931;SDS011;8065;49.520;11.284;2023-03-15T15:00:25;1.87;;;1.73;;
15931;SDS011;8065;49.520;11.284;2023-03-15T15:02:53;2.70;;;1.80;;
15931;SDS011;8065;49.520;11.284;2023-03-15T15:05:21;2.43;;;1.80;;
15931;SDS011;8065;49.520;11.284;2023-03-15T15:07:50;2.30;;;1.77;;
15931;SDS011;8065;49.520;11.284;2023-03-15T15:10:19;1.87;;;1.70;;
15931;SDS011;8065;49.520;11.284;2023-03-15T15:12:47;2.77;;;1.90;;
15931;SDS011;8065;49.520;11.284;2023-03-15T15:15:14;2.57;;;2.10;;